createdAt,value
2023-03-31T00:00:24.408Z,4.699
2023-03-31T00:01:26.318Z,4.599
2023-03-31T00:02:22.989Z,4.699
2023-03-31T00:03:23.523Z,4.300
2023-03-31T00:04:23.391Z,5.800
2023-03-31T00:05:23.138Z,5.5
2023-03-31T00:06:23.151Z,5.400
2023-03-31T00:07:23.423Z,3.5
2023-03-31T00:08:22.972Z,4.699
2023-03-31T00:09:23.051Z,4.300
2023-03-31T00:10:23.715Z,5.599
2023-03-31T00:11:23.159Z,3.099
2023-03-31T00:12:23.805Z,3.700
2023-03-31T00:13:23.058Z,4.900
2023-03-31T00:14:23.402Z,4.699
2023-03-31T00:15:23.901Z,4.5
2023-03-31T00:17:23.763Z,3.799
2023-03-31T00:18:23.390Z,3.900
2023-03-31T00:19:23.617Z,4.800
2023-03-31T00:20:23.434Z,4.5
2023-03-31T00:21:23.731Z,3.400
2023-03-31T00:22:23.839Z,4.199
2023-03-31T00:23:23.608Z,2.799
2023-03-31T00:24:23.144Z,3.799
2023-03-31T00:25:23.530Z,4.699
2023-03-31T00:26:23.043Z,4.300
2023-03-31T00:27:23.437Z,6.599
2023-03-31T00:28:23.659Z,3.599
2023-03-31T00:29:23.160Z,5.099
2023-03-31T00:30:23.699Z,3.299
2023-03-31T00:31:22.782Z,5.099
2023-03-31T00:32:23.473Z,4
2023-03-31T00:33:23.089Z,5
2023-03-31T00:34:23.672Z,4.199
2023-03-31T00:35:23.274Z,3.299
2023-03-31T00:37:23.624Z,4.599
2023-03-31T00:38:23.556Z,5.800
2023-03-31T00:39:23.558Z,6
2023-03-31T00:40:24.061Z,6.300
2023-03-31T00:41:23.413Z,7.300
2023-03-31T00:42:23.733Z,4.5
2023-03-31T00:43:22.837Z,5.400
2023-03-31T00:44:23.295Z,5.5
2023-03-31T00:45:23.839Z,5
2023-03-31T00:46:23.135Z,6
2023-03-31T00:47:23.318Z,5.300
2023-03-31T00:48:23.294Z,4.5
2023-03-31T00:49:23.390Z,5.099
2023-03-31T00:50:23.626Z,5.599
2023-03-31T00:51:23.213Z,6.300
2023-03-31T00:52:23.162Z,6
2023-03-31T00:53:22.997Z,7.199
2023-03-31T00:54:23.194Z,6.599
2023-03-31T00:55:23.606Z,5.800
2023-03-31T00:56:23.012Z,7.5
2023-03-31T00:57:23.331Z,6.599
2023-03-31T00:58:23.825Z,8.399
2023-03-31T00:59:23.107Z,5.900
2023-03-31T01:00:24.391Z,6.400
2023-03-31T01:01:24.023Z,8.899
2023-03-31T01:02:23.762Z,8.800
2023-03-31T01:03:23.065Z,10.80
2023-03-31T01:04:23.650Z,8.300
2023-03-31T01:05:23.172Z,8.699
2023-03-31T01:06:23.395Z,7.599
2023-03-31T01:07:23.661Z,7.300
2023-03-31T01:08:23.302Z,8.100
2023-03-31T01:09:22.779Z,8
2023-03-31T01:10:23.237Z,9.5
2023-03-31T01:11:22.992Z,9.399
2023-03-31T01:12:23.268Z,9.100
2023-03-31T01:13:23.071Z,8.100
2023-03-31T01:14:22.869Z,8.600
2023-03-31T01:15:23.372Z,6.699
2023-03-31T01:16:23.581Z,9.300
2023-03-31T01:17:23.313Z,7.900
2023-03-31T01:18:23.382Z,13
2023-03-31T01:19:23.238Z,9.800
2023-03-31T01:20:23.313Z,10.39
2023-03-31T01:21:23.506Z,12.10
2023-03-31T01:22:23.627Z,9.899
2023-03-31T01:24:22.873Z,8.800
2023-03-31T01:25:22.965Z,9.5
2023-03-31T01:26:23.046Z,8
2023-03-31T01:27:22.734Z,8.899
2023-03-31T01:28:23.334Z,8.5
2023-03-31T01:29:23.604Z,9.699
2023-03-31T01:30:23.731Z,8.199
2023-03-31T01:31:23.318Z,9.399
2023-03-31T01:32:22.797Z,9.899
2023-03-31T01:33:24.117Z,8.199
2023-03-31T01:34:23.079Z,8.100
2023-03-31T01:36:22.992Z,7.800
2023-03-31T01:37:22.885Z,8.800
2023-03-31T01:38:23.341Z,9.199
2023-03-31T01:39:23.619Z,8.5
2023-03-31T01:40:23.820Z,6.900
2023-03-31T01:41:23.408Z,8.600
2023-03-31T01:42:23.713Z,7
2023-03-31T01:43:23.099Z,6.599
2023-03-31T01:44:23.269Z,7.599
2023-03-31T01:45:23.866Z,8
2023-03-31T01:47:23.530Z,7
2023-03-31T01:48:23.808Z,8.100
2023-03-31T01:49:22.525Z,6.5
2023-03-31T01:50:23.558Z,6.099
2023-03-31T01:51:23.365Z,6.699
2023-03-31T01:52:23.042Z,6.900
2023-03-31T01:53:23.198Z,7.199
2023-03-31T01:54:23.381Z,5.400
2023-03-31T01:55:22.870Z,6.400
2023-03-31T01:56:22.940Z,5.5
2023-03-31T01:57:23.489Z,6.400
2023-03-31T01:58:22.566Z,7.199
2023-03-31T01:59:23.126Z,6.099
2023-03-31T02:01:27.634Z,7.800
2023-03-31T02:02:23.052Z,4.300
2023-03-31T02:03:22.980Z,5.300
2023-03-31T02:04:23.252Z,4.699
2023-03-31T02:05:23.612Z,7
2023-03-31T02:06:22.815Z,5.300
2023-03-31T02:07:22.753Z,4.599
2023-03-31T02:08:23.151Z,5.199
2023-03-31T02:09:23.371Z,4.699
2023-03-31T02:10:23.549Z,5.599
2023-03-31T02:11:23.410Z,4.599
2023-03-31T02:12:23.052Z,4.199
2023-03-31T02:13:23.060Z,4.300
2023-03-31T02:14:23.415Z,5.199
2023-03-31T02:15:23.111Z,3.799
2023-03-31T02:16:23.239Z,3.099
2023-03-31T02:17:23.383Z,5.900
2023-03-31T02:18:23.407Z,4.599
2023-03-31T02:19:23.725Z,5.300
2023-03-31T02:20:23.416Z,4.300
2023-03-31T02:21:23.100Z,5.900
2023-03-31T02:22:23.680Z,5.099
2023-03-31T02:23:23.720Z,4.300
2023-03-31T02:24:22.786Z,5
2023-03-31T02:25:23.147Z,4.599
2023-03-31T02:27:23.549Z,4.800
2023-03-31T02:28:23.285Z,5
2023-03-31T02:29:23.190Z,5.5
2023-03-31T02:30:23.819Z,5.300
2023-03-31T02:31:23.432Z,4.099
2023-03-31T02:32:23.724Z,5.199
2023-03-31T02:33:23.198Z,4.800
2023-03-31T02:34:23.353Z,4.300
2023-03-31T02:35:23.541Z,4.699
2023-03-31T02:36:23.180Z,4.800
2023-03-31T02:37:23.501Z,4
2023-03-31T02:38:23.149Z,4.699
2023-03-31T02:39:23.559Z,5.099
2023-03-31T02:40:23.405Z,5.199
2023-03-31T02:41:23.637Z,5.5
2023-03-31T02:42:23.195Z,4.699
2023-03-31T02:43:23.239Z,6.400
2023-03-31T02:44:23.220Z,4.599
2023-03-31T02:45:23.364Z,3.900
2023-03-31T02:46:23.948Z,5.300
2023-03-31T02:47:23.162Z,4.800
2023-03-31T02:48:23.711Z,5.5
2023-03-31T02:49:24.837Z,6.800
2023-03-31T02:50:23.288Z,6
2023-03-31T02:51:23.308Z,5.900
2023-03-31T02:52:23.438Z,4.5
2023-03-31T02:53:23.075Z,5.199
2023-03-31T02:54:23.070Z,4.400
2023-03-31T02:55:23.193Z,4.800
2023-03-31T02:57:22.883Z,4.699
2023-03-31T02:58:23.485Z,5.400
2023-03-31T02:59:23.831Z,4.099
2023-03-31T03:00:24.088Z,3.700
2023-03-31T03:01:23.523Z,5
2023-03-31T03:03:22.991Z,5.699
2023-03-31T03:04:22.700Z,4.599
2023-03-31T03:05:22.956Z,4.800
2023-03-31T03:06:23.121Z,6.199
2023-03-31T03:07:23.298Z,4.699
2023-03-31T03:08:23.349Z,4.900
2023-03-31T03:09:23.646Z,4.5
2023-03-31T03:10:23.087Z,4.199
2023-03-31T03:11:31.446Z,5
2023-03-31T03:12:23.358Z,4.300
2023-03-31T03:13:31.341Z,6.099
2023-03-31T03:14:23.526Z,5.599
2023-03-31T03:15:23.692Z,3.900
2023-03-31T03:16:22.939Z,5.900
2023-03-31T03:17:23.181Z,4.5
2023-03-31T03:18:23.544Z,4.400
2023-03-31T03:19:23.452Z,5
2023-03-31T03:20:23.381Z,3.299
2023-03-31T03:21:23.186Z,4.099
2023-03-31T03:22:23.421Z,4.300
2023-03-31T03:23:23.234Z,3.799
2023-03-31T03:24:23.178Z,3.099
2023-03-31T03:25:23.351Z,3
2023-03-31T03:26:23.517Z,3.700
2023-03-31T03:27:23.641Z,4.400
2023-03-31T03:28:23.284Z,3.700
2023-03-31T03:29:23.380Z,3.900
2023-03-31T03:30:23.227Z,4.300
2023-03-31T03:31:23.824Z,3
2023-03-31T03:32:23.173Z,4
2023-03-31T03:33:23.145Z,3.299
2023-03-31T03:34:22.990Z,4
2023-03-31T03:35:22.995Z,4.699
2023-03-31T03:36:23.241Z,4.900
2023-03-31T03:37:23.324Z,4.699
2023-03-31T03:38:23.299Z,3.599
2023-03-31T03:39:23.212Z,4.400
2023-03-31T03:40:23.289Z,5.300
2023-03-31T03:41:23.479Z,3.900
2023-03-31T03:42:23.647Z,6.699
2023-03-31T03:43:22.912Z,6.099
2023-03-31T03:44:23.396Z,4.599
2023-03-31T03:45:23.671Z,4
2023-03-31T03:46:23.302Z,3.900
2023-03-31T03:47:23.354Z,3.099
2023-03-31T03:48:23.889Z,4.199
2023-03-31T03:49:23.167Z,3.900
2023-03-31T03:50:23.482Z,3.799
2023-03-31T03:51:23.062Z,4.800
2023-03-31T03:52:23.155Z,4.199
2023-03-31T03:53:23.443Z,4.699
2023-03-31T03:54:23.310Z,4.5
2023-03-31T03:55:23.651Z,4.300
2023-03-31T03:56:23.113Z,3.900
2023-03-31T03:57:23.013Z,4.300
2023-03-31T03:58:23.350Z,5.5
2023-03-31T03:59:23.079Z,3.700
2023-03-31T04:00:24.338Z,3.599
2023-03-31T04:01:23.389Z,4.099
2023-03-31T04:02:26.199Z,4.699
2023-03-31T04:03:23.344Z,4
2023-03-31T04:04:23.493Z,4.800
2023-03-31T04:05:23.252Z,3.200
2023-03-31T04:06:23.277Z,5
2023-03-31T04:07:23.296Z,3.799
2023-03-31T04:08:23.399Z,4.300
2023-03-31T04:09:23.337Z,3.900
2023-03-31T04:10:23.664Z,3.400
2023-03-31T04:11:23.308Z,3.5
2023-03-31T04:12:24.073Z,4.800
2023-03-31T04:13:23.351Z,5
2023-03-31T04:14:23.418Z,4.300
2023-03-31T04:15:23.943Z,4
2023-03-31T04:16:23.188Z,4.599
2023-03-31T04:17:23.482Z,4.099
2023-03-31T04:18:23.947Z,4.5
2023-03-31T04:19:23.067Z,3.799
2023-03-31T04:20:23.271Z,3.900
2023-03-31T04:21:23.409Z,3.099
2023-03-31T04:22:23.193Z,3.5
2023-03-31T04:23:23.309Z,3.400
2023-03-31T04:24:23.680Z,4.900
2023-03-31T04:25:23.752Z,5.5
2023-03-31T04:26:23.516Z,4.400
2023-03-31T04:27:23.837Z,4.599
2023-03-31T04:28:23.324Z,5.199
2023-03-31T04:29:23.742Z,2.900
2023-03-31T04:30:23.609Z,5.300
2023-03-31T04:31:23.672Z,6.400
2023-03-31T04:32:23.284Z,3.799
2023-03-31T04:33:23.137Z,3.700
2023-03-31T04:34:23.196Z,4
2023-03-31T04:35:23.030Z,4.800
2023-03-31T04:36:23.467Z,4.099
2023-03-31T04:38:23.158Z,4.400
2023-03-31T04:39:23.667Z,4.5
2023-03-31T04:40:23.090Z,4
2023-03-31T04:41:23.159Z,4.699
2023-03-31T04:42:23.182Z,3.799
2023-03-31T04:43:23.238Z,3.299
2023-03-31T04:44:25.090Z,3.700
2023-03-31T04:45:23.349Z,4.300
2023-03-31T04:46:23.378Z,3.099
2023-03-31T04:47:23.592Z,4.5
2023-03-31T04:48:23.807Z,3.099
2023-03-31T04:49:23.212Z,4.599
2023-03-31T04:50:23.484Z,3.900
2023-03-31T04:51:23.510Z,3.700
2023-03-31T04:52:23.597Z,3
2023-03-31T04:53:23.608Z,4.099
2023-03-31T04:54:23.298Z,3.799
2023-03-31T04:55:23.658Z,3.099
2023-03-31T04:56:23.320Z,2.599
2023-03-31T04:57:23.695Z,3
2023-03-31T04:58:23.056Z,3.5
2023-03-31T04:59:23.504Z,2.299
2023-03-31T05:00:23.784Z,4.699
2023-03-31T05:01:22.817Z,2.599
2023-03-31T05:02:24.945Z,3.200
2023-03-31T05:03:23.476Z,3.099
2023-03-31T05:04:23.211Z,3.700
2023-03-31T05:05:23.892Z,3.5
2023-03-31T05:06:23.554Z,2.299
2023-03-31T05:07:23.567Z,2.799
2023-03-31T05:08:23.778Z,2.5
2023-03-31T05:09:23.234Z,1.899
2023-03-31T05:10:24.010Z,2
2023-03-31T05:11:23.553Z,2.900
2023-03-31T05:12:23.512Z,1.799
2023-03-31T05:13:23.212Z,3.799
2023-03-31T05:14:23.902Z,2.099
2023-03-31T05:15:23.583Z,2.200
2023-03-31T05:16:23.209Z,3.099
2023-03-31T05:17:23.581Z,2.299
2023-03-31T05:18:23.232Z,3
2023-03-31T05:19:23.755Z,3.5
2023-03-31T05:20:23.347Z,2.299
2023-03-31T05:21:28.991Z,2
2023-03-31T05:22:23.000Z,1.899
2023-03-31T05:23:23.238Z,2.5
2023-03-31T05:24:23.512Z,2.099
2023-03-31T05:25:24.126Z,2.299
2023-03-31T05:26:23.527Z,2.200
2023-03-31T05:28:29.871Z,1.700
2023-03-31T05:29:23.255Z,2.099
2023-03-31T05:30:23.592Z,2
2023-03-31T05:31:24.400Z,1.399
2023-03-31T05:32:23.879Z,1.700
2023-03-31T05:33:23.813Z,1
2023-03-31T05:34:23.214Z,3.099
2023-03-31T05:35:23.669Z,1.5
2023-03-31T05:36:28.770Z,1.200
2023-03-31T05:37:23.621Z,1.799
2023-03-31T05:38:31.251Z,2.099
2023-03-31T05:39:23.650Z,1.5
2023-03-31T05:40:23.999Z,2
2023-03-31T05:41:23.277Z,2.099
2023-03-31T05:42:23.416Z,1.600
2023-03-31T05:43:23.527Z,1.299
2023-03-31T05:44:23.808Z,1.5
2023-03-31T05:45:23.650Z,2.200
2023-03-31T05:46:23.003Z,1.700
2023-03-31T05:47:23.510Z,1.200
2023-03-31T05:48:24.021Z,0.899
2023-03-31T05:50:23.345Z,1.899
2023-03-31T05:51:23.656Z,1.200
2023-03-31T05:52:23.401Z,1.399
2023-03-31T05:53:23.781Z,1.700
2023-03-31T05:54:23.772Z,1.100
2023-03-31T05:55:23.267Z,0.800
2023-03-31T05:56:24.147Z,1.5
2023-03-31T05:58:23.919Z,0.899
2023-03-31T05:59:23.848Z,1.700
2023-03-31T06:00:24.649Z,0.899
2023-03-31T06:01:23.155Z,1.399
2023-03-31T06:02:24.461Z,0.899
2023-03-31T06:03:23.650Z,1.399
2023-03-31T06:04:23.528Z,1
2023-03-31T06:05:23.743Z,1.700
2023-03-31T06:06:23.673Z,1.399
2023-03-31T06:07:23.677Z,0.699
2023-03-31T06:08:23.695Z,0.899
2023-03-31T06:09:23.320Z,0.800
2023-03-31T06:10:23.120Z,1.200
2023-03-31T06:11:23.410Z,1.700
2023-03-31T06:12:23.392Z,2
2023-03-31T06:13:23.619Z,1.299
2023-03-31T06:15:23.537Z,1.100
2023-03-31T06:17:23.584Z,1.299
2023-03-31T06:18:23.340Z,2
2023-03-31T06:19:23.904Z,1
2023-03-31T06:20:27.712Z,1.399
2023-03-31T06:21:23.167Z,1.700
2023-03-31T06:22:23.801Z,1.899
2023-03-31T06:23:23.172Z,1.299
2023-03-31T06:24:23.843Z,1.600
2023-03-31T06:25:23.119Z,1.399
2023-03-31T06:26:23.516Z,4.099
2023-03-31T06:27:23.177Z,1.5
2023-03-31T06:28:23.092Z,0.899
2023-03-31T06:29:23.641Z,1.600
2023-03-31T06:30:24.077Z,1.899
2023-03-31T06:31:23.561Z,2.299
2023-03-31T06:32:23.191Z,2.799
2023-03-31T06:33:23.684Z,1.899
2023-03-31T06:34:23.104Z,1.100
2023-03-31T06:35:25.695Z,0.800
2023-03-31T06:36:23.059Z,0.5
2023-03-31T06:37:23.893Z,1.100
2023-03-31T06:38:23.551Z,1.299
2023-03-31T06:39:25.726Z,0.699
2023-03-31T06:40:23.972Z,1.799
2023-03-31T06:41:23.299Z,1.700
2023-03-31T06:42:24.035Z,1.100
2023-03-31T06:43:23.924Z,0.899
2023-03-31T06:44:23.406Z,1.299
2023-03-31T06:45:23.969Z,1.399
2023-03-31T06:46:23.276Z,2
2023-03-31T06:47:23.956Z,1.100
2023-03-31T06:48:23.355Z,1.600
2023-03-31T06:50:23.708Z,1.799
2023-03-31T06:51:23.741Z,1.399
2023-03-31T06:52:23.811Z,2.400
2023-03-31T06:53:23.452Z,2.799
2023-03-31T06:54:23.818Z,1.700
2023-03-31T06:55:23.684Z,1.5
2023-03-31T06:56:23.394Z,1.700
2023-03-31T06:57:24.557Z,1.5
2023-03-31T06:58:24.148Z,1.100
2023-03-31T06:59:23.278Z,1.200
2023-03-31T07:00:24.657Z,1.399
2023-03-31T07:01:23.861Z,0.899
2023-03-31T07:02:26.160Z,1.399
2023-03-31T07:03:23.432Z,1.100
2023-03-31T07:04:23.321Z,1.5
2023-03-31T07:05:23.767Z,0.5
2023-03-31T07:06:23.276Z,1.299
2023-03-31T07:07:23.961Z,0.800
2023-03-31T07:08:23.748Z,1.200
2023-03-31T07:09:23.456Z,0.800
2023-03-31T07:10:23.582Z,1.600
2023-03-31T07:11:23.169Z,2.099
2023-03-31T07:12:23.612Z,2
2023-03-31T07:13:23.458Z,1.5
2023-03-31T07:14:23.565Z,1.799
2023-03-31T07:15:23.864Z,1.100
2023-03-31T07:16:23.160Z,1.799
2023-03-31T07:18:23.210Z,1.100
2023-03-31T07:19:23.519Z,1.399
2023-03-31T07:21:22.474Z,2
2023-03-31T07:22:23.870Z,1.200
2023-03-31T07:23:23.397Z,1.700
2023-03-31T07:24:23.456Z,1.5
2023-03-31T07:25:23.785Z,2.400
2023-03-31T07:26:23.429Z,2.599
2023-03-31T07:27:25.526Z,2.700
2023-03-31T07:28:24.139Z,2.599
2023-03-31T07:29:23.860Z,1.200
2023-03-31T07:30:23.849Z,1.600
2023-03-31T07:31:23.625Z,3.200
2023-03-31T07:32:25.816Z,2.5
2023-03-31T07:34:24.092Z,1.5
2023-03-31T07:35:23.986Z,4.199
2023-03-31T07:36:23.654Z,3.5
2023-03-31T07:37:23.836Z,2.799
2023-03-31T07:38:24.115Z,2
2023-03-31T07:39:23.744Z,2.700
2023-03-31T07:40:23.662Z,2.400
2023-03-31T07:41:23.202Z,2.900
2023-03-31T07:42:23.855Z,4.599
2023-03-31T07:43:23.472Z,3.400
2023-03-31T07:44:23.329Z,4
2023-03-31T07:45:23.728Z,2.900
2023-03-31T07:46:23.075Z,4.099
2023-03-31T07:47:23.852Z,3.299
2023-03-31T07:48:23.745Z,3.900
2023-03-31T07:49:23.843Z,4.300
2023-03-31T07:50:24.052Z,6.199
2023-03-31T07:51:24.394Z,3.700
2023-03-31T07:52:23.979Z,4.5
2023-03-31T07:53:23.845Z,4
2023-03-31T07:55:23.888Z,4.199
2023-03-31T07:56:23.586Z,5.199
2023-03-31T07:57:23.675Z,3.900
2023-03-31T07:58:23.941Z,3.700
2023-03-31T07:59:23.246Z,3.400
2023-03-31T08:00:24.062Z,4.400
2023-03-31T08:01:23.328Z,5.199
2023-03-31T08:02:24.195Z,4.400
2023-03-31T08:03:23.162Z,3.900
2023-03-31T08:04:23.005Z,6.300
2023-03-31T08:05:23.439Z,4.699
2023-03-31T08:06:23.697Z,4.400
2023-03-31T08:07:23.148Z,2.900
2023-03-31T08:08:23.591Z,4.400
2023-03-31T08:09:23.648Z,4.300
2023-03-31T08:10:23.321Z,4.400
2023-03-31T08:11:23.188Z,3.799
2023-03-31T08:12:23.393Z,5
2023-03-31T08:13:23.825Z,4.599
2023-03-31T08:14:34.078Z,4.699
2023-03-31T08:15:23.290Z,4
2023-03-31T08:16:23.548Z,4.699
2023-03-31T08:18:23.714Z,5
2023-03-31T08:19:23.230Z,3.900
2023-03-31T08:20:23.840Z,4.5
2023-03-31T08:21:24.719Z,4.099
2023-03-31T08:22:23.244Z,4.199
2023-03-31T08:23:23.839Z,6.199
2023-03-31T08:24:23.055Z,3.799
2023-03-31T08:25:23.691Z,5.099
2023-03-31T08:26:22.970Z,4.199
2023-03-31T08:27:23.463Z,4.5
2023-03-31T08:28:23.065Z,5.800
2023-03-31T08:29:23.635Z,4
2023-03-31T08:30:23.178Z,4.900
2023-03-31T08:31:23.914Z,5.099
2023-03-31T08:32:23.408Z,5.800
2023-03-31T08:33:23.590Z,6.699
2023-03-31T08:34:23.050Z,5.599
2023-03-31T08:35:23.465Z,5.5
2023-03-31T08:36:23.063Z,5.800
2023-03-31T08:37:23.541Z,7.5
2023-03-31T08:38:23.706Z,7.400
2023-03-31T08:39:23.460Z,6.599
2023-03-31T08:40:24.148Z,8.399
2023-03-31T08:41:23.178Z,6.199
2023-03-31T08:42:23.422Z,5.900
2023-03-31T08:43:23.370Z,5.5
2023-03-31T08:44:23.530Z,7.5
2023-03-31T08:45:23.901Z,7.599
2023-03-31T08:46:23.107Z,8
2023-03-31T08:47:23.366Z,3.799
2023-03-31T08:48:23.502Z,5.300
2023-03-31T08:49:23.124Z,7.099
2023-03-31T08:50:23.906Z,5.900
2023-03-31T08:51:23.215Z,7.099
2023-03-31T08:53:23.607Z,7.300
2023-03-31T08:54:23.969Z,6.800
2023-03-31T08:55:23.205Z,6.300
2023-03-31T08:56:23.681Z,7.800
2023-03-31T08:57:23.326Z,8.800
2023-03-31T08:58:24.078Z,6.900
2023-03-31T08:59:23.656Z,6.5
2023-03-31T09:00:24.868Z,6.699
2023-03-31T09:01:23.244Z,6
2023-03-31T09:02:23.614Z,6.599
2023-03-31T09:03:23.634Z,6.5
2023-03-31T09:04:23.349Z,8.600
2023-03-31T09:05:24.165Z,5.599
2023-03-31T09:06:23.419Z,8.300
2023-03-31T09:07:23.978Z,6.5
2023-03-31T09:08:23.546Z,5.400
2023-03-31T09:09:24.197Z,8.300
2023-03-31T09:10:23.608Z,6.699
2023-03-31T09:11:23.478Z,7.400
2023-03-31T09:12:24.212Z,5.699
2023-03-31T09:13:23.793Z,5.900
2023-03-31T09:14:23.218Z,6.400
2023-03-31T09:15:23.495Z,6.900
2023-03-31T09:16:23.783Z,7.199
2023-03-31T09:17:23.224Z,6.5
2023-03-31T09:18:25.377Z,5.5
2023-03-31T09:19:23.586Z,7
2023-03-31T09:20:23.178Z,7.199
2023-03-31T09:21:23.657Z,7.699
2023-03-31T09:22:23.227Z,7.099
2023-03-31T09:23:23.822Z,4.900
2023-03-31T09:24:23.002Z,7.400
2023-03-31T09:25:23.514Z,7.900
2023-03-31T09:26:23.324Z,7.699
2023-03-31T09:27:23.669Z,8.699
2023-03-31T09:28:23.806Z,6.900
2023-03-31T09:29:23.561Z,8.5
2023-03-31T09:30:24.534Z,7.199
2023-03-31T09:31:23.543Z,6.800
2023-03-31T09:32:24.154Z,7.900
2023-03-31T09:33:23.494Z,6.099
2023-03-31T09:34:23.088Z,7.5
2023-03-31T09:35:23.787Z,6.699
2023-03-31T09:36:23.195Z,7.699
2023-03-31T09:37:23.668Z,6.199
2023-03-31T09:38:23.112Z,7.599
2023-03-31T09:39:23.797Z,6.199
2023-03-31T09:40:24.137Z,7.099
2023-03-31T09:41:23.084Z,7.800
2023-03-31T09:42:23.466Z,5.800
2023-03-31T09:43:23.131Z,6.599
2023-03-31T09:44:24.699Z,8.300
2023-03-31T09:45:23.910Z,5.900
2023-03-31T09:47:23.529Z,6.900
2023-03-31T09:48:23.354Z,7.099
2023-03-31T09:49:23.488Z,5.199
2023-03-31T09:50:25.464Z,5.099
2023-03-31T09:51:23.004Z,5.300
2023-03-31T09:52:23.538Z,7.699
2023-03-31T09:53:23.323Z,5.800
2023-03-31T09:54:23.692Z,6.400
2023-03-31T09:55:38.312Z,6.800
2023-03-31T09:57:23.015Z,6.599
2023-03-31T09:58:24.047Z,7.599
2023-03-31T09:59:23.366Z,6.199
2023-03-31T10:00:23.828Z,6.599
2023-03-31T10:01:23.392Z,7.300
2023-03-31T10:02:23.765Z,5.300
2023-03-31T10:03:23.006Z,7.199
2023-03-31T10:04:23.352Z,5.199
2023-03-31T10:05:23.913Z,6.900
2023-03-31T10:06:23.336Z,8.399
2023-03-31T10:07:23.680Z,8.199
2023-03-31T10:08:23.730Z,5
2023-03-31T10:09:22.884Z,6.400
2023-03-31T10:10:23.429Z,8.300
2023-03-31T10:11:23.612Z,7.099
2023-03-31T10:12:23.742Z,6
2023-03-31T10:13:23.344Z,5.900
2023-03-31T10:14:23.336Z,7.199
2023-03-31T10:15:24.004Z,5.400
2023-03-31T10:16:23.484Z,7.599
2023-03-31T10:17:23.880Z,6.800
2023-03-31T10:18:23.434Z,8
2023-03-31T10:19:22.859Z,6.300
2023-03-31T10:20:24.039Z,7.400
2023-03-31T10:21:23.202Z,7.099
2023-03-31T10:23:23.273Z,7.699
2023-03-31T10:24:23.408Z,8.100
2023-03-31T10:25:23.554Z,8.600
2023-03-31T10:26:23.209Z,6.400
2023-03-31T10:27:23.704Z,6.199
2023-03-31T10:28:23.364Z,5.699
2023-03-31T10:29:23.770Z,8.699
2023-03-31T10:30:23.748Z,5.599
2023-03-31T10:31:23.237Z,5
2023-03-31T10:32:23.581Z,6.800
2023-03-31T10:33:23.772Z,7.099
2023-03-31T10:34:23.627Z,5.5
2023-03-31T10:35:23.397Z,6.400
2023-03-31T10:36:23.326Z,6.800
2023-03-31T10:37:23.451Z,6.5
2023-03-31T10:38:23.257Z,6.699
2023-03-31T10:39:23.596Z,8
2023-03-31T10:40:24.321Z,7
2023-03-31T10:41:23.377Z,6.099
2023-03-31T10:42:23.522Z,6.699
2023-03-31T10:43:23.506Z,8.100
2023-03-31T10:44:23.810Z,6.300
2023-03-31T10:45:35.619Z,5.300
2023-03-31T10:46:37.197Z,7.699
2023-03-31T10:47:23.711Z,5.800
2023-03-31T10:48:23.861Z,7.699
2023-03-31T10:49:23.431Z,7.300
2023-03-31T10:50:23.756Z,7.400
2023-03-31T10:51:23.099Z,7
2023-03-31T10:52:23.429Z,7.800
2023-03-31T10:53:23.764Z,7.300
2023-03-31T10:54:23.345Z,6.300
2023-03-31T10:55:23.871Z,4.5
2023-03-31T10:56:23.296Z,5.099
2023-03-31T10:57:23.805Z,6.199
2023-03-31T10:58:23.561Z,7
2023-03-31T10:59:23.564Z,4.099
2023-03-31T11:00:24.525Z,4.599
2023-03-31T11:01:23.780Z,4.900
2023-03-31T11:02:23.617Z,4.5
2023-03-31T11:03:23.458Z,3.299
2023-03-31T11:04:22.736Z,4.699
2023-03-31T11:05:23.158Z,4.400
2023-03-31T11:06:45.545Z,5.199
2023-03-31T11:07:22.690Z,4.400
2023-03-31T11:08:23.213Z,6.400
2023-03-31T11:09:23.475Z,5.599
2023-03-31T11:10:23.909Z,4.400
2023-03-31T11:11:23.744Z,5.900
2023-03-31T11:12:23.680Z,5.099
2023-03-31T11:13:23.385Z,6.400
2023-03-31T11:14:23.610Z,6.099
2023-03-31T11:15:23.601Z,5.099
2023-03-31T11:16:23.453Z,4.300
2023-03-31T11:17:22.952Z,5.400
2023-03-31T11:19:23.202Z,6.300
2023-03-31T11:20:23.486Z,5.199
2023-03-31T11:21:24.123Z,5.699
2023-03-31T11:22:23.395Z,5.800
2023-03-31T11:23:24.138Z,7.199
2023-03-31T11:24:23.740Z,6.199
2023-03-31T11:25:23.300Z,7.400
2023-03-31T11:26:23.769Z,8.5
2023-03-31T11:27:23.741Z,9.600
2023-03-31T11:28:23.086Z,7.199
2023-03-31T11:29:23.567Z,7.300
2023-03-31T11:30:23.320Z,9.199
2023-03-31T11:31:23.717Z,9.100
2023-03-31T11:32:23.401Z,10.60
2023-03-31T11:33:23.238Z,7.099
2023-03-31T11:34:23.467Z,8
2023-03-31T11:35:24.528Z,8.899
2023-03-31T11:36:23.499Z,7.699
2023-03-31T11:37:23.074Z,9.100
2023-03-31T11:38:24.043Z,9.199
2023-03-31T11:39:23.044Z,6.5
2023-03-31T11:40:23.763Z,8.5
2023-03-31T11:41:23.321Z,7.400
2023-03-31T11:42:23.654Z,8.899
2023-03-31T11:43:22.515Z,6.599
2023-03-31T11:44:22.942Z,6.800
2023-03-31T11:45:23.584Z,5.599
2023-03-31T11:46:24.214Z,5.199
2023-03-31T11:47:23.849Z,7.5
2023-03-31T11:48:23.524Z,4.599
2023-03-31T11:49:23.945Z,5.099
2023-03-31T11:50:23.575Z,4.5
2023-03-31T11:51:23.328Z,4.900
2023-03-31T11:52:23.385Z,3.400
2023-03-31T11:53:23.685Z,2.900
2023-03-31T11:54:23.559Z,2.5
2023-03-31T11:55:23.352Z,3.599
2023-03-31T11:56:23.591Z,2.299
2023-03-31T11:57:23.487Z,3.200
2023-03-31T11:58:23.677Z,2.099
2023-03-31T11:59:23.701Z,2.799
2023-03-31T12:00:23.573Z,2.400
2023-03-31T12:01:23.548Z,2.700
2023-03-31T12:02:23.493Z,3.5
2023-03-31T12:03:23.756Z,2.099
2023-03-31T12:04:23.444Z,2.200
2023-03-31T12:05:24.218Z,2.799
2023-03-31T12:06:23.769Z,5.199
2023-03-31T12:07:23.532Z,3.599
2023-03-31T12:08:23.317Z,3.799
2023-03-31T12:09:24.279Z,3.700
2023-03-31T12:10:23.272Z,2.799
2023-03-31T12:11:23.149Z,2.400
2023-03-31T12:12:23.122Z,3.900
2023-03-31T12:13:22.987Z,4.099
2023-03-31T12:14:23.206Z,3.5
2023-03-31T12:15:23.449Z,2.900
2023-03-31T12:16:23.249Z,3.599
2023-03-31T12:17:23.431Z,4.800
2023-03-31T12:18:22.998Z,5.099
2023-03-31T12:19:23.385Z,5.900
2023-03-31T12:20:23.765Z,3.599
2023-03-31T12:21:23.539Z,5.199
2023-03-31T12:22:23.268Z,3.900
2023-03-31T12:23:23.590Z,4.099
2023-03-31T12:24:23.524Z,3.900
2023-03-31T12:25:23.688Z,6.400
2023-03-31T12:26:23.687Z,5.400
2023-03-31T12:27:24.041Z,5.699
2023-03-31T12:28:23.165Z,4.800
2023-03-31T12:29:23.331Z,5
2023-03-31T12:30:23.738Z,6.599
2023-03-31T12:31:23.577Z,5.199
2023-03-31T12:32:23.416Z,6.300
2023-03-31T12:33:23.278Z,7.099
2023-03-31T12:34:23.604Z,6.199
2023-03-31T12:35:23.814Z,5.800
2023-03-31T12:36:23.725Z,7.099
2023-03-31T12:37:23.302Z,7.699
2023-03-31T12:38:23.947Z,6.099
2023-03-31T12:39:28.076Z,6.900
2023-03-31T12:40:23.475Z,8
2023-03-31T12:41:23.730Z,7.699
2023-03-31T12:42:25.213Z,9.699
2023-03-31T12:43:28.888Z,6.599
2023-03-31T12:44:23.300Z,9.199
2023-03-31T12:45:24.105Z,6.400
2023-03-31T12:46:23.566Z,7.900
2023-03-31T12:47:24.293Z,6.599
2023-03-31T12:48:23.658Z,7.300
2023-03-31T12:49:23.659Z,6.900
2023-03-31T12:51:23.337Z,8.699
2023-03-31T12:52:23.558Z,8.399
2023-03-31T12:54:23.298Z,7.300
2023-03-31T12:55:23.553Z,7.199
2023-03-31T12:56:24.046Z,7.099
2023-03-31T12:57:23.968Z,5.599
2023-03-31T12:58:23.456Z,5
2023-03-31T12:59:23.493Z,7.300
2023-03-31T13:00:24.474Z,6.300
2023-03-31T13:01:23.574Z,5.400
2023-03-31T13:02:23.313Z,5.5
2023-03-31T13:03:23.628Z,4.599
2023-03-31T13:04:23.646Z,6.199
2023-03-31T13:05:23.307Z,6
2023-03-31T13:06:23.112Z,5.199
2023-03-31T13:07:28.705Z,7.199
2023-03-31T13:08:23.770Z,4.5
2023-03-31T13:09:23.181Z,4.800
2023-03-31T13:10:23.571Z,5.099
2023-03-31T13:11:23.097Z,5.599
2023-03-31T13:12:23.491Z,3.700
2023-03-31T13:13:23.198Z,5.400
2023-03-31T13:14:23.538Z,4
2023-03-31T13:15:24.225Z,4.900
2023-03-31T13:16:23.845Z,4.199
2023-03-31T13:17:23.221Z,5.400
2023-03-31T13:18:23.598Z,6.199
2023-03-31T13:19:25.356Z,4.900
2023-03-31T13:20:23.458Z,4.599
2023-03-31T13:21:23.604Z,6.800
2023-03-31T13:22:22.960Z,4.599
2023-03-31T13:23:23.175Z,6
2023-03-31T13:24:23.547Z,5.099
2023-03-31T13:25:24.428Z,5.599
2023-03-31T13:27:23.714Z,7
2023-03-31T13:28:23.421Z,6.199
2023-03-31T13:29:22.893Z,5.599
2023-03-31T13:30:23.884Z,5.199
2023-03-31T13:31:23.281Z,6.599
2023-03-31T13:32:23.670Z,7.199
2023-03-31T13:33:23.477Z,4.400
2023-03-31T13:34:23.037Z,4.5
2023-03-31T13:35:23.979Z,5
2023-03-31T13:36:23.704Z,5.699